sensor_id;sensor_type;location;lat;lon;timestamp;P1;durP1;ratioP1;P2;durP2;ratioP2
9860;SDS011;4969;52.304;4.968;2022-08-03T00:00:10;10.50;;;2.72;;
9860;SDS011;4969;52.304;4.968;2022-08-03T00:02:39;5.93;;;2.58;;
9860;SDS011;4969;52.304;4.968;2022-08-03T00:05:06;8.35;;;2.42;;
9860;SDS011;4969;52.304;4.968;2022-08-03T00:07:33;8.20;;;2.42;;
9860;SDS011;4969;52.304;4.968;2022-08-03T00:10:01;7.90;;;2.40;;
9860;SDS011;4969;52.304;4.968;2022-08-03T00:12:28;8.38;;;2.97;;
9860;SDS011;4969;52.304;4.968;2022-08-03T00:14:54;8.93;;;2.65;;
9860;SDS011;4969;52.304;4.968;2022-08-03T00:17:21;8.57;;;2.30;;
9860;SDS011;4969;52.304;4.968;2022-08-03T00:19:47;8.15;;;2.50;;
9860;SDS011;4969;52.304;4.968;2022-08-03T00:22:14;7.68;;;2.85;;
9860;SDS011;4969;52.304;4.968;2022-08-03T00:24:40;10.18;;;2.53;;
9860;SDS011;4969;52.304;4.968;2022-08-03T00:27:08;9.43;;;2.53;;
9860;SDS011;4969;52.304;4.968;2022-08-03T00:29:34;8.60;;;2.38;;
9860;SDS011;4969;52.304;4.968;2022-08-03T00:32:01;8.88;;;3.15;;
9860;SDS011;4969;52.304;4.968;2022-08-03T00:34:28;5.32;;;2.22;;
9860;SDS011;4969;52.304;4.968;2022-08-03T00:36:55;5.78;;;2.45;;
9860;SDS011;4969;52.304;4.968;2022-08-03T00:39:21;8.52;;;2.40;;
9860;SDS011;4969;52.304;4.968;2022-08-03T00:41:48;5.00;;;2.33;;
9860;SDS011;4969;52.304;4.968;2022-08-03T00:44:16;8.45;;;2.33;;
9860;SDS011;4969;52.304;4.968;2022-08-03T00:46:42;6.95;;;2.28;;
9860;SDS011;4969;52.304;4.968;2022-08-03T00:49:09;8.05;;;2.58;;
9860;SDS011;4969;52.304;4.968;2022-08-03T00:51:35;5.10;;;2.85;;
9860;SDS011;4969;52.304;4.968;2022-08-03T00:54:02;8.00;;;2.55;;
9860;SDS011;4969;52.304;4.968;2022-08-03T00:56:29;6.50;;;2.15;;
9860;SDS011;4969;52.304;4.968;2022-08-03T00:58:55;5.68;;;2.42;;
9860;SDS011;4969;52.304;4.968;2022-08-03T01:01:25;5.47;;;2.28;;
9860;SDS011;4969;52.304;4.968;2022-08-03T01:03:51;8.23;;;2.42;;
9860;SDS011;4969;52.304;4.968;2022-08-03T01:06:19;6.72;;;2.08;;
9860;SDS011;4969;52.304;4.968;2022-08-03T01:08:53;8.23;;;3.00;;
9860;SDS011;4969;52.304;4.968;2022-08-03T01:11:28;6.63;;;2.63;;
9860;SDS011;4969;52.304;4.968;2022-08-03T01:14:02;8.88;;;2.60;;
9860;SDS011;4969;52.304;4.968;2022-08-03T01:16:35;7.15;;;2.53;;
9860;SDS011;4969;52.304;4.968;2022-08-03T01:19:12;5.30;;;2.63;;
9860;SDS011;4969;52.304;4.968;2022-08-03T01:21:55;5.03;;;2.60;;
9860;SDS011;4969;52.304;4.968;2022-08-03T01:24:31;7.85;;;2.67;;
9860;SDS011;4969;52.304;4.968;2022-08-03T01:27:06;9.75;;;2.88;;
9860;SDS011;4969;52.304;4.968;2022-08-03T01:29:50;9.60;;;3.00;;
9860;SDS011;4969;52.304;4.968;2022-08-03T01:32:24;9.32;;;3.05;;
9860;SDS011;4969;52.304;4.968;2022-08-03T01:34:57;12.63;;;2.80;;
9860;SDS011;4969;52.304;4.968;2022-08-03T01:37:40;10.60;;;2.90;;
9860;SDS011;4969;52.304;4.968;2022-08-03T01:40:10;10.63;;;2.80;;
9860;SDS011;4969;52.304;4.968;2022-08-03T01:42:39;6.25;;;2.75;;
9860;SDS011;4969;52.304;4.968;2022-08-03T01:45:09;7.32;;;2.70;;
9860;SDS011;4969;52.304;4.968;2022-08-03T01:47:38;10.00;;;3.00;;
9860;SDS011;4969;52.304;4.968;2022-08-03T01:50:06;7.30;;;2.45;;
9860;SDS011;4969;52.304;4.968;2022-08-03T01:52:36;8.23;;;2.92;;
9860;SDS011;4969;52.304;4.968;2022-08-03T01:55:05;5.82;;;2.65;;
9860;SDS011;4969;52.304;4.968;2022-08-03T01:57:33;10.07;;;2.90;;
9860;SDS011;4969;52.304;4.968;2022-08-03T02:00:03;9.25;;;3.08;;
9860;SDS011;4969;52.304;4.968;2022-08-03T02:02:34;8.20;;;2.85;;
9860;SDS011;4969;52.304;4.968;2022-08-03T02:05:02;7.55;;;2.58;;
9860;SDS011;4969;52.304;4.968;2022-08-03T02:07:32;7.93;;;2.53;;
9860;SDS011;4969;52.304;4.968;2022-08-03T02:10:00;7.93;;;2.63;;
9860;SDS011;4969;52.304;4.968;2022-08-03T02:12:28;11.05;;;2.70;;
9860;SDS011;4969;52.304;4.968;2022-08-03T02:14:56;7.57;;;2.35;;
9860;SDS011;4969;52.304;4.968;2022-08-03T02:17:25;10.00;;;3.00;;
9860;SDS011;4969;52.304;4.968;2022-08-03T02:19:54;7.43;;;2.78;;
9860;SDS011;4969;52.304;4.968;2022-08-03T02:22:24;10.82;;;2.88;;
9860;SDS011;4969;52.304;4.968;2022-08-03T02:24:51;10.98;;;3.28;;
9860;SDS011;4969;52.304;4.968;2022-08-03T02:27:19;5.60;;;3.00;;
9860;SDS011;4969;52.304;4.968;2022-08-03T02:29:48;6.35;;;3.08;;
9860;SDS011;4969;52.304;4.968;2022-08-03T02:32:19;6.20;;;3.00;;
9860;SDS011;4969;52.304;4.968;2022-08-03T02:34:50;8.32;;;3.22;;
9860;SDS011;4969;52.304;4.968;2022-08-03T02:37:19;7.15;;;3.00;;
9860;SDS011;4969;52.304;4.968;2022-08-03T02:39:50;3.90;;;2.63;;
9860;SDS011;4969;52.304;4.968;2022-08-03T02:42:22;5.75;;;2.95;;
9860;SDS011;4969;52.304;4.968;2022-08-03T02:44:50;6.18;;;2.90;;
9860;SDS011;4969;52.304;4.968;2022-08-03T02:47:19;7.63;;;3.05;;
9860;SDS011;4969;52.304;4.968;2022-08-03T02:49:47;5.93;;;3.00;;
9860;SDS011;4969;52.304;4.968;2022-08-03T02:52:14;10.00;;;3.17;;
9860;SDS011;4969;52.304;4.968;2022-08-03T02:54:43;8.60;;;3.47;;
9860;SDS011;4969;52.304;4.968;2022-08-03T02:57:11;8.95;;;3.47;;
9860;SDS011;4969;52.304;4.968;2022-08-03T02:59:40;12.25;;;3.78;;
9860;SDS011;4969;52.304;4.968;2022-08-03T03:02:08;6.70;;;3.63;;
9860;SDS011;4969;52.304;4.968;2022-08-03T03:04:36;7.53;;;3.35;;
9860;SDS011;4969;52.304;4.968;2022-08-03T03:07:03;5.88;;;3.92;;
9860;SDS011;4969;52.304;4.968;2022-08-03T03:09:31;9.40;;;3.60;;
9860;SDS011;4969;52.304;4.968;2022-08-03T03:12:00;5.60;;;4.00;;
9860;SDS011;4969;52.304;4.968;2022-08-03T03:14:28;6.68;;;3.72;;
9860;SDS011;4969;52.304;4.968;2022-08-03T03:16:55;9.18;;;3.60;;
9860;SDS011;4969;52.304;4.968;2022-08-03T03:19:22;7.85;;;3.70;;
9860;SDS011;4969;52.304;4.968;2022-08-03T03:21:50;9.57;;;3.88;;
9860;SDS011;4969;52.304;4.968;2022-08-03T03:24:18;6.72;;;3.67;;
9860;SDS011;4969;52.304;4.968;2022-08-03T03:26:45;11.65;;;4.10;;
9860;SDS011;4969;52.304;4.968;2022-08-03T03:29:14;6.75;;;3.45;;
9860;SDS011;4969;52.304;4.968;2022-08-03T03:31:41;7.35;;;3.70;;
9860;SDS011;4969;52.304;4.968;2022-08-03T03:34:08;13.65;;;4.68;;
9860;SDS011;4969;52.304;4.968;2022-08-03T03:36:35;9.95;;;3.80;;
9860;SDS011;4969;52.304;4.968;2022-08-03T03:39:01;7.70;;;3.63;;
9860;SDS011;4969;52.304;4.968;2022-08-03T03:41:28;13.18;;;4.15;;
9860;SDS011;4969;52.304;4.968;2022-08-03T03:43:54;10.35;;;4.03;;
9860;SDS011;4969;52.304;4.968;2022-08-03T03:46:22;10.27;;;3.58;;
9860;SDS011;4969;52.304;4.968;2022-08-03T03:48:49;11.25;;;3.80;;
9860;SDS011;4969;52.304;4.968;2022-08-03T03:51:16;6.85;;;3.70;;
9860;SDS011;4969;52.304;4.968;2022-08-03T03:53:53;10.68;;;3.90;;
9860;SDS011;4969;52.304;4.968;2022-08-03T03:56:21;9.10;;;3.50;;
9860;SDS011;4969;52.304;4.968;2022-08-03T03:58:47;11.45;;;3.85;;
9860;SDS011;4969;52.304;4.968;2022-08-03T04:01:14;11.63;;;4.07;;
9860;SDS011;4969;52.304;4.968;2022-08-03T04:03:42;7.75;;;3.45;;
9860;SDS011;4969;52.304;4.968;2022-08-03T04:06:09;8.82;;;3.60;;
9860;SDS011;4969;52.304;4.968;2022-08-03T04:08:53;9.85;;;3.90;;
9860;SDS011;4969;52.304;4.968;2022-08-03T04:11:38;11.65;;;3.53;;
9860;SDS011;4969;52.304;4.968;2022-08-03T04:14:07;12.35;;;3.72;;
9860;SDS011;4969;52.304;4.968;2022-08-03T04:16:37;12.57;;;3.92;;
9860;SDS011;4969;52.304;4.968;2022-08-03T04:19:08;10.18;;;3.90;;
9860;SDS011;4969;52.304;4.968;2022-08-03T04:21:37;12.35;;;4.10;;
9860;SDS011;4969;52.304;4.968;2022-08-03T04:24:07;11.48;;;4.53;;
9860;SDS011;4969;52.304;4.968;2022-08-03T04:26:38;7.85;;;3.40;;
9860;SDS011;4969;52.304;4.968;2022-08-03T04:29:05;9.00;;;4.10;;
9860;SDS011;4969;52.304;4.968;2022-08-03T04:31:32;13.70;;;4.22;;
9860;SDS011;4969;52.304;4.968;2022-08-03T04:34:00;13.90;;;4.15;;
9860;SDS011;4969;52.304;4.968;2022-08-03T04:36:30;9.27;;;4.03;;
9860;SDS011;4969;52.304;4.968;2022-08-03T04:38:59;10.32;;;4.28;;
9860;SDS011;4969;52.304;4.968;2022-08-03T04:41:28;11.38;;;3.92;;
9860;SDS011;4969;52.304;4.968;2022-08-03T04:43:56;12.95;;;4.13;;
9860;SDS011;4969;52.304;4.968;2022-08-03T04:46:26;8.77;;;3.63;;
9860;SDS011;4969;52.304;4.968;2022-08-03T04:48:56;12.40;;;3.85;;
9860;SDS011;4969;52.304;4.968;2022-08-03T04:51:24;8.98;;;3.30;;
9860;SDS011;4969;52.304;4.968;2022-08-03T04:53:53;7.28;;;3.40;;
9860;SDS011;4969;52.304;4.968;2022-08-03T04:56:19;11.73;;;4.07;;
9860;SDS011;4969;52.304;4.968;2022-08-03T04:58:46;10.93;;;4.03;;
9860;SDS011;4969;52.304;4.968;2022-08-03T05:01:12;11.55;;;3.88;;
9860;SDS011;4969;52.304;4.968;2022-08-03T05:03:40;10.43;;;3.72;;
9860;SDS011;4969;52.304;4.968;2022-08-03T05:06:07;12.15;;;3.92;;
9860;SDS011;4969;52.304;4.968;2022-08-03T05:08:34;7.18;;;3.90;;
9860;SDS011;4969;52.304;4.968;2022-08-03T05:11:02;12.43;;;3.50;;
9860;SDS011;4969;52.304;4.968;2022-08-03T05:13:28;9.77;;;3.53;;
9860;SDS011;4969;52.304;4.968;2022-08-03T05:15:55;10.45;;;3.92;;
9860;SDS011;4969;52.304;4.968;2022-08-03T05:18:21;14.68;;;5.20;;
9860;SDS011;4969;52.304;4.968;2022-08-03T05:20:48;16.55;;;5.78;;
9860;SDS011;4969;52.304;4.968;2022-08-03T05:23:14;11.45;;;5.05;;
9860;SDS011;4969;52.304;4.968;2022-08-03T05:25:41;12.43;;;5.50;;
9860;SDS011;4969;52.304;4.968;2022-08-03T05:28:08;13.05;;;5.13;;
9860;SDS011;4969;52.304;4.968;2022-08-03T05:30:35;6.93;;;4.20;;
9860;SDS011;4969;52.304;4.968;2022-08-03T05:33:02;12.00;;;4.53;;
9860;SDS011;4969;52.304;4.968;2022-08-03T05:35:29;7.60;;;4.50;;
9860;SDS011;4969;52.304;4.968;2022-08-03T05:37:56;11.57;;;4.35;;
9860;SDS011;4969;52.304;4.968;2022-08-03T05:40:23;9.55;;;4.20;;
9860;SDS011;4969;52.304;4.968;2022-08-03T05:42:49;9.90;;;3.90;;
9860;SDS011;4969;52.304;4.968;2022-08-03T05:45:17;8.68;;;4.20;;
9860;SDS011;4969;52.304;4.968;2022-08-03T05:47:44;10.88;;;3.92;;
9860;SDS011;4969;52.304;4.968;2022-08-03T05:50:11;9.82;;;3.85;;
9860;SDS011;4969;52.304;4.968;2022-08-03T05:52:38;14.25;;;4.75;;
9860;SDS011;4969;52.304;4.968;2022-08-03T05:55:06;12.73;;;5.68;;
9860;SDS011;4969;52.304;4.968;2022-08-03T05:57:33;12.05;;;4.70;;
9860;SDS011;4969;52.304;4.968;2022-08-03T06:00:00;13.27;;;5.88;;
9860;SDS011;4969;52.304;4.968;2022-08-03T06:02:29;13.98;;;5.25;;
9860;SDS011;4969;52.304;4.968;2022-08-03T06:04:55;16.55;;;5.55;;
9860;SDS011;4969;52.304;4.968;2022-08-03T06:07:22;10.98;;;5.22;;
9860;SDS011;4969;52.304;4.968;2022-08-03T06:09:49;11.40;;;4.90;;
9860;SDS011;4969;52.304;4.968;2022-08-03T06:12:15;14.45;;;4.90;;
9860;SDS011;4969;52.304;4.968;2022-08-03T06:14:42;13.75;;;4.90;;
9860;SDS011;4969;52.304;4.968;2022-08-03T06:17:08;13.25;;;5.18;;
9860;SDS011;4969;52.304;4.968;2022-08-03T06:19:36;11.00;;;5.20;;
9860;SDS011;4969;52.304;4.968;2022-08-03T06:22:03;17.50;;;6.10;;
9860;SDS011;4969;52.304;4.968;2022-08-03T06:24:30;14.63;;;6.38;;
9860;SDS011;4969;52.304;4.968;2022-08-03T06:26:57;16.10;;;5.75;;
9860;SDS011;4969;52.304;4.968;2022-08-03T06:29:23;13.75;;;6.40;;
9860;SDS011;4969;52.304;4.968;2022-08-03T06:31:50;16.55;;;6.50;;
9860;SDS011;4969;52.304;4.968;2022-08-03T06:34:16;18.17;;;6.97;;
9860;SDS011;4969;52.304;4.968;2022-08-03T06:36:44;19.73;;;7.85;;
9860;SDS011;4969;52.304;4.968;2022-08-03T06:39:12;16.23;;;8.23;;
9860;SDS011;4969;52.304;4.968;2022-08-03T06:41:39;11.90;;;7.30;;
9860;SDS011;4969;52.304;4.968;2022-08-03T06:44:05;20.13;;;8.65;;
9860;SDS011;4969;52.304;4.968;2022-08-03T06:46:32;18.98;;;11.13;;
9860;SDS011;4969;52.304;4.968;2022-08-03T06:48:59;18.42;;;10.57;;
9860;SDS011;4969;52.304;4.968;2022-08-03T06:51:25;18.88;;;11.48;;
9860;SDS011;4969;52.304;4.968;2022-08-03T06:53:53;19.63;;;11.23;;
9860;SDS011;4969;52.304;4.968;2022-08-03T06:56:20;20.92;;;11.55;;
9860;SDS011;4969;52.304;4.968;2022-08-03T06:58:46;15.63;;;11.93;;
9860;SDS011;4969;52.304;4.968;2022-08-03T07:01:13;25.35;;;13.32;;
9860;SDS011;4969;52.304;4.968;2022-08-03T07:03:40;18.33;;;12.48;;
9860;SDS011;4969;52.304;4.968;2022-08-03T07:06:06;15.20;;;12.18;;
9860;SDS011;4969;52.304;4.968;2022-08-03T07:08:33;16.67;;;12.43;;
9860;SDS011;4969;52.304;4.968;2022-08-03T07:11:01;21.98;;;12.80;;
9860;SDS011;4969;52.304;4.968;2022-08-03T07:13:27;19.33;;;13.43;;
9860;SDS011;4969;52.304;4.968;2022-08-03T07:15:54;23.67;;;13.55;;
9860;SDS011;4969;52.304;4.968;2022-08-03T07:18:20;20.98;;;12.73;;
9860;SDS011;4969;52.304;4.968;2022-08-03T07:20:47;19.33;;;12.40;;
9860;SDS011;4969;52.304;4.968;2022-08-03T07:23:13;21.73;;;12.75;;
9860;SDS011;4969;52.304;4.968;2022-08-03T07:25:40;20.17;;;12.18;;
9860;SDS011;4969;52.304;4.968;2022-08-03T07:28:08;26.05;;;13.38;;
9860;SDS011;4969;52.304;4.968;2022-08-03T07:30:34;21.13;;;12.90;;
9860;SDS011;4969;52.304;4.968;2022-08-03T07:33:01;20.50;;;12.93;;
9860;SDS011;4969;52.304;4.968;2022-08-03T07:35:27;19.40;;;12.30;;
9860;SDS011;4969;52.304;4.968;2022-08-03T07:37:54;24.13;;;12.35;;
9860;SDS011;4969;52.304;4.968;2022-08-03T07:40:20;21.52;;;12.27;;
9860;SDS011;4969;52.304;4.968;2022-08-03T07:42:47;21.02;;;12.48;;
9860;SDS011;4969;52.304;4.968;2022-08-03T07:45:15;22.60;;;12.13;;
9860;SDS011;4969;52.304;4.968;2022-08-03T07:47:42;19.90;;;11.48;;
9860;SDS011;4969;52.304;4.968;2022-08-03T07:50:08;19.75;;;10.73;;
9860;SDS011;4969;52.304;4.968;2022-08-03T07:52:35;19.75;;;11.57;;
9860;SDS011;4969;52.304;4.968;2022-08-03T07:55:14;19.75;;;10.82;;
9860;SDS011;4969;52.304;4.968;2022-08-03T07:57:41;22.58;;;12.00;;
9860;SDS011;4969;52.304;4.968;2022-08-03T08:00:11;26.60;;;17.88;;
9860;SDS011;4969;52.304;4.968;2022-08-03T08:02:41;31.58;;;18.23;;
9860;SDS011;4969;52.304;4.968;2022-08-03T08:05:08;19.10;;;10.48;;
9860;SDS011;4969;52.304;4.968;2022-08-03T08:07:36;32.20;;;19.85;;
9860;SDS011;4969;52.304;4.968;2022-08-03T08:10:03;26.05;;;17.10;;
9860;SDS011;4969;52.304;4.968;2022-08-03T08:12:31;25.35;;;15.13;;
9860;SDS011;4969;52.304;4.968;2022-08-03T08:14:57;35.85;;;23.17;;
9860;SDS011;4969;52.304;4.968;2022-08-03T08:17:24;21.55;;;14.90;;
9860;SDS011;4969;52.304;4.968;2022-08-03T08:19:52;22.48;;;13.70;;
9860;SDS011;4969;52.304;4.968;2022-08-03T08:22:18;26.63;;;21.15;;
9860;SDS011;4969;52.304;4.968;2022-08-03T08:24:45;21.75;;;13.60;;
9860;SDS011;4969;52.304;4.968;2022-08-03T08:27:13;27.73;;;19.58;;
9860;SDS011;4969;52.304;4.968;2022-08-03T08:29:39;18.13;;;12.05;;
9860;SDS011;4969;52.304;4.968;2022-08-03T08:32:06;30.30;;;23.10;;
9860;SDS011;4969;52.304;4.968;2022-08-03T08:34:33;30.70;;;23.85;;
9860;SDS011;4969;52.304;4.968;2022-08-03T08:37:01;25.58;;;20.88;;
9860;SDS011;4969;52.304;4.968;2022-08-03T08:39:27;31.33;;;21.98;;
9860;SDS011;4969;52.304;4.968;2022-08-03T08:41:54;20.95;;;11.88;;
9860;SDS011;4969;52.304;4.968;2022-08-03T08:44:20;21.48;;;14.20;;
9860;SDS011;4969;52.304;4.968;2022-08-03T08:46:47;32.53;;;23.58;;
9860;SDS011;4969;52.304;4.968;2022-08-03T08:49:17;25.85;;;17.63;;
9860;SDS011;4969;52.304;4.968;2022-08-03T08:51:48;26.50;;;20.80;;
9860;SDS011;4969;52.304;4.968;2022-08-03T08:54:19;35.47;;;26.45;;
9860;SDS011;4969;52.304;4.968;2022-08-03T08:56:47;34.78;;;27.88;;
9860;SDS011;4969;52.304;4.968;2022-08-03T08:59:15;26.70;;;19.30;;
9860;SDS011;4969;52.304;4.968;2022-08-03T09:01:43;40.47;;;33.55;;
9860;SDS011;4969;52.304;4.968;2022-08-03T09:04:09;24.48;;;16.95;;
9860;SDS011;4969;52.304;4.968;2022-08-03T09:06:36;28.70;;;20.52;;
9860;SDS011;4969;52.304;4.968;2022-08-03T09:09:04;20.45;;;14.93;;
9860;SDS011;4969;52.304;4.968;2022-08-03T09:11:32;35.28;;;26.48;;
9860;SDS011;4969;52.304;4.968;2022-08-03T09:13:59;37.60;;;30.60;;
9860;SDS011;4969;52.304;4.968;2022-08-03T09:16:26;28.75;;;22.23;;
9860;SDS011;4969;52.304;4.968;2022-08-03T09:18:53;36.70;;;29.00;;
9860;SDS011;4969;52.304;4.968;2022-08-03T09:21:20;24.33;;;17.77;;
9860;SDS011;4969;52.304;4.968;2022-08-03T09:23:49;27.83;;;20.02;;
9860;SDS011;4969;52.304;4.968;2022-08-03T09:26:20;16.23;;;12.30;;
9860;SDS011;4969;52.304;4.968;2022-08-03T09:28:59;33.05;;;24.25;;
9860;SDS011;4969;52.304;4.968;2022-08-03T09:31:30;34.35;;;23.42;;
9860;SDS011;4969;52.304;4.968;2022-08-03T09:33:59;39.97;;;27.23;;
9860;SDS011;4969;52.304;4.968;2022-08-03T09:36:35;51.17;;;39.40;;
9860;SDS011;4969;52.304;4.968;2022-08-03T09:39:04;32.53;;;26.10;;
9860;SDS011;4969;52.304;4.968;2022-08-03T09:41:34;18.25;;;9.38;;
9860;SDS011;4969;52.304;4.968;2022-08-03T09:44:03;25.45;;;17.50;;
9860;SDS011;4969;52.304;4.968;2022-08-03T09:46:30;59.85;;;42.55;;
9860;SDS011;4969;52.304;4.968;2022-08-03T09:49:09;24.95;;;15.75;;
9860;SDS011;4969;52.304;4.968;2022-08-03T09:51:36;58.67;;;47.42;;
9860;SDS011;4969;52.304;4.968;2022-08-03T09:54:04;43.00;;;36.35;;
9860;SDS011;4969;52.304;4.968;2022-08-03T09:56:41;41.88;;;31.42;;
9860;SDS011;4969;52.304;4.968;2022-08-03T09:59:11;28.45;;;22.60;;
9860;SDS011;4969;52.304;4.968;2022-08-03T10:01:38;48.50;;;35.75;;
9860;SDS011;4969;52.304;4.968;2022-08-03T10:04:10;39.38;;;28.00;;
9860;SDS011;4969;52.304;4.968;2022-08-03T10:06:38;31.88;;;24.13;;
9860;SDS011;4969;52.304;4.968;2022-08-03T10:09:06;56.15;;;46.42;;
9860;SDS011;4969;52.304;4.968;2022-08-03T10:11:35;56.35;;;42.58;;
9860;SDS011;4969;52.304;4.968;2022-08-03T10:14:03;35.78;;;26.98;;
9860;SDS011;4969;52.304;4.968;2022-08-03T10:16:33;59.45;;;48.40;;
9860;SDS011;4969;52.304;4.968;2022-08-03T10:19:02;22.05;;;15.30;;
9860;SDS011;4969;52.304;4.968;2022-08-03T10:21:32;28.63;;;16.90;;
9860;SDS011;4969;52.304;4.968;2022-08-03T10:24:04;20.17;;;11.02;;
9860;SDS011;4969;52.304;4.968;2022-08-03T10:26:32;22.85;;;14.38;;
9860;SDS011;4969;52.304;4.968;2022-08-03T10:29:05;18.10;;;12.13;;
9860;SDS011;4969;52.304;4.968;2022-08-03T10:31:38;16.65;;;12.23;;
9860;SDS011;4969;52.304;4.968;2022-08-03T10:34:08;19.08;;;10.02;;
9860;SDS011;4969;52.304;4.968;2022-08-03T10:36:40;18.25;;;11.63;;
9860;SDS011;4969;52.304;4.968;2022-08-03T10:39:07;25.20;;;19.50;;
9860;SDS011;4969;52.304;4.968;2022-08-03T10:41:36;25.02;;;13.68;;
9860;SDS011;4969;52.304;4.968;2022-08-03T10:44:07;18.75;;;11.02;;
9860;SDS011;4969;52.304;4.968;2022-08-03T10:46:35;25.55;;;19.48;;
9860;SDS011;4969;52.304;4.968;2022-08-03T10:49:05;37.97;;;26.60;;
9860;SDS011;4969;52.304;4.968;2022-08-03T10:51:32;28.85;;;22.02;;
9860;SDS011;4969;52.304;4.968;2022-08-03T10:53:59;17.35;;;9.70;;
9860;SDS011;4969;52.304;4.968;2022-08-03T10:56:39;22.67;;;11.73;;
9860;SDS011;4969;52.304;4.968;2022-08-03T11:02:24;21.23;;;12.82;;
9860;SDS011;4969;52.304;4.968;2022-08-03T11:05:33;37.58;;;30.27;;
9860;SDS011;4969;52.304;4.968;2022-08-03T11:10:56;24.75;;;20.77;;
9860;SDS011;4969;52.304;4.968;2022-08-03T11:13:25;24.83;;;15.98;;
9860;SDS011;4969;52.304;4.968;2022-08-03T11:15:56;35.47;;;25.13;;
9860;SDS011;4969;52.304;4.968;2022-08-03T11:18:26;16.63;;;9.18;;
9860;SDS011;4969;52.304;4.968;2022-08-03T11:20:53;16.20;;;7.88;;
9860;SDS011;4969;52.304;4.968;2022-08-03T11:26:12;21.92;;;14.85;;
9860;SDS011;4969;52.304;4.968;2022-08-03T11:28:40;13.27;;;7.47;;
9860;SDS011;4969;52.304;4.968;2022-08-03T11:34:23;28.45;;;19.33;;
9860;SDS011;4969;52.304;4.968;2022-08-03T11:39:46;19.65;;;15.05;;
9860;SDS011;4969;52.304;4.968;2022-08-03T11:45:03;49.28;;;40.92;;
9860;SDS011;4969;52.304;4.968;2022-08-03T11:47:34;46.88;;;39.65;;
9860;SDS011;4969;52.304;4.968;2022-08-03T11:50:05;37.40;;;27.85;;
9860;SDS011;4969;52.304;4.968;2022-08-03T11:52:37;51.78;;;44.35;;
9860;SDS011;4969;52.304;4.968;2022-08-03T11:55:08;37.58;;;29.00;;
9860;SDS011;4969;52.304;4.968;2022-08-03T11:57:36;27.95;;;22.42;;
9860;SDS011;4969;52.304;4.968;2022-08-03T12:00:05;12.00;;;6.55;;
9860;SDS011;4969;52.304;4.968;2022-08-03T12:02:54;23.85;;;20.48;;
9860;SDS011;4969;52.304;4.968;2022-08-03T12:05:32;27.00;;;20.95;;
9860;SDS011;4969;52.304;4.968;2022-08-03T12:08:10;30.25;;;22.48;;
9860;SDS011;4969;52.304;4.968;2022-08-03T12:10:38;15.38;;;7.07;;
9860;SDS011;4969;52.304;4.968;2022-08-03T12:13:06;27.17;;;18.38;;
9860;SDS011;4969;52.304;4.968;2022-08-03T12:15:34;16.85;;;8.35;;
9860;SDS011;4969;52.304;4.968;2022-08-03T12:18:03;27.83;;;19.02;;
9860;SDS011;4969;52.304;4.968;2022-08-03T12:20:40;25.73;;;20.08;;
9860;SDS011;4969;52.304;4.968;2022-08-03T12:23:07;13.57;;;5.47;;
9860;SDS011;4969;52.304;4.968;2022-08-03T12:25:35;13.55;;;5.55;;
9860;SDS011;4969;52.304;4.968;2022-08-03T12:28:08;34.83;;;26.15;;
9860;SDS011;4969;52.304;4.968;2022-08-03T12:30:43;26.92;;;24.02;;
9860;SDS011;4969;52.304;4.968;2022-08-03T12:33:11;24.98;;;22.08;;
9860;SDS011;4969;52.304;4.968;2022-08-03T12:35:45;10.15;;;4.40;;
9860;SDS011;4969;52.304;4.968;2022-08-03T12:38:17;27.33;;;20.30;;
9860;SDS011;4969;52.304;4.968;2022-08-03T12:40:45;11.05;;;5.88;;
9860;SDS011;4969;52.304;4.968;2022-08-03T12:43:21;16.02;;;11.02;;
9860;SDS011;4969;52.304;4.968;2022-08-03T12:45:47;34.78;;;27.88;;
9860;SDS011;4969;52.304;4.968;2022-08-03T12:48:14;15.43;;;10.07;;
9860;SDS011;4969;52.304;4.968;2022-08-03T12:50:40;15.07;;;11.02;;
9860;SDS011;4969;52.304;4.968;2022-08-03T12:53:08;22.05;;;17.15;;
9860;SDS011;4969;52.304;4.968;2022-08-03T12:55:35;23.50;;;18.10;;
9860;SDS011;4969;52.304;4.968;2022-08-03T12:58:04;18.02;;;14.13;;
9860;SDS011;4969;52.304;4.968;2022-08-03T13:00:32;19.85;;;15.25;;
9860;SDS011;4969;52.304;4.968;2022-08-03T13:02:59;10.57;;;4.38;;
9860;SDS011;4969;52.304;4.968;2022-08-03T13:05:27;8.55;;;3.80;;
9860;SDS011;4969;52.304;4.968;2022-08-03T13:07:54;9.00;;;3.60;;
9860;SDS011;4969;52.304;4.968;2022-08-03T13:10:29;17.23;;;10.95;;
9860;SDS011;4969;52.304;4.968;2022-08-03T13:12:57;12.18;;;6.88;;
9860;SDS011;4969;52.304;4.968;2022-08-03T13:15:27;19.05;;;15.48;;
9860;SDS011;4969;52.304;4.968;2022-08-03T13:17:55;11.05;;;9.27;;
9860;SDS011;4969;52.304;4.968;2022-08-03T13:20:22;18.92;;;16.17;;
9860;SDS011;4969;52.304;4.968;2022-08-03T13:22:48;9.13;;;5.82;;
9860;SDS011;4969;52.304;4.968;2022-08-03T13:25:16;30.67;;;20.38;;
9860;SDS011;4969;52.304;4.968;2022-08-03T13:27:44;7.93;;;3.53;;
9860;SDS011;4969;52.304;4.968;2022-08-03T13:30:10;15.57;;;13.77;;
9860;SDS011;4969;52.304;4.968;2022-08-03T13:32:37;11.65;;;5.53;;
9860;SDS011;4969;52.304;4.968;2022-08-03T13:35:04;11.57;;;6.85;;
9860;SDS011;4969;52.304;4.968;2022-08-03T13:37:32;12.88;;;5.60;;
9860;SDS011;4969;52.304;4.968;2022-08-03T13:39:58;11.07;;;7.55;;
9860;SDS011;4969;52.304;4.968;2022-08-03T13:42:26;14.50;;;10.30;;
9860;SDS011;4969;52.304;4.968;2022-08-03T13:44:55;13.60;;;10.05;;
9860;SDS011;4969;52.304;4.968;2022-08-03T13:47:21;18.52;;;14.10;;
9860;SDS011;4969;52.304;4.968;2022-08-03T13:49:48;18.38;;;12.30;;
9860;SDS011;4969;52.304;4.968;2022-08-03T13:52:16;12.35;;;7.00;;
9860;SDS011;4969;52.304;4.968;2022-08-03T13:54:43;12.13;;;7.38;;
9860;SDS011;4969;52.304;4.968;2022-08-03T13:57:09;18.67;;;16.65;;
9860;SDS011;4969;52.304;4.968;2022-08-03T13:59:36;15.25;;;8.90;;
9860;SDS011;4969;52.304;4.968;2022-08-03T14:02:04;18.33;;;10.90;;
9860;SDS011;4969;52.304;4.968;2022-08-03T14:04:31;20.58;;;16.73;;
9860;SDS011;4969;52.304;4.968;2022-08-03T14:06:57;13.57;;;8.73;;
9860;SDS011;4969;52.304;4.968;2022-08-03T14:09:24;18.25;;;13.23;;
9860;SDS011;4969;52.304;4.968;2022-08-03T14:11:50;17.63;;;12.27;;
9860;SDS011;4969;52.304;4.968;2022-08-03T14:14:17;21.45;;;16.48;;
9860;SDS011;4969;52.304;4.968;2022-08-03T14:16:43;23.23;;;13.75;;
9860;SDS011;4969;52.304;4.968;2022-08-03T14:19:11;11.25;;;8.02;;
9860;SDS011;4969;52.304;4.968;2022-08-03T14:21:39;29.52;;;24.27;;
9860;SDS011;4969;52.304;4.968;2022-08-03T14:24:06;28.98;;;22.17;;
9860;SDS011;4969;52.304;4.968;2022-08-03T14:26:33;8.55;;;3.63;;
9860;SDS011;4969;52.304;4.968;2022-08-03T14:28:59;16.83;;;12.88;;
9860;SDS011;4969;52.304;4.968;2022-08-03T14:31:26;9.82;;;6.03;;
9860;SDS011;4969;52.304;4.968;2022-08-03T14:33:52;9.75;;;7.47;;
9860;SDS011;4969;52.304;4.968;2022-08-03T14:36:20;23.83;;;17.13;;
9860;SDS011;4969;52.304;4.968;2022-08-03T14:38:47;21.27;;;17.33;;
9860;SDS011;4969;52.304;4.968;2022-08-03T14:41:13;14.68;;;11.07;;
9860;SDS011;4969;52.304;4.968;2022-08-03T14:43:40;6.57;;;5.82;;
9860;SDS011;4969;52.304;4.968;2022-08-03T14:46:06;15.63;;;12.20;;
9860;SDS011;4969;52.304;4.968;2022-08-03T14:48:33;11.57;;;10.18;;
9860;SDS011;4969;52.304;4.968;2022-08-03T14:50:59;17.60;;;15.48;;
9860;SDS011;4969;52.304;4.968;2022-08-03T14:53:27;18.30;;;13.73;;
9860;SDS011;4969;52.304;4.968;2022-08-03T14:55:54;9.82;;;5.95;;
9860;SDS011;4969;52.304;4.968;2022-08-03T14:58:21;11.57;;;7.05;;
9860;SDS011;4969;52.304;4.968;2022-08-03T15:00:51;22.52;;;20.25;;
9860;SDS011;4969;52.304;4.968;2022-08-03T15:03:18;14.02;;;12.52;;
9860;SDS011;4969;52.304;4.968;2022-08-03T15:05:47;21.83;;;15.32;;
9860;SDS011;4969;52.304;4.968;2022-08-03T15:08:14;21.15;;;18.65;;
9860;SDS011;4969;52.304;4.968;2022-08-03T15:10:41;13.23;;;8.82;;
9860;SDS011;4969;52.304;4.968;2022-08-03T15:13:08;13.75;;;5.72;;
9860;SDS011;4969;52.304;4.968;2022-08-03T15:15:34;13.02;;;10.20;;
9860;SDS011;4969;52.304;4.968;2022-08-03T15:18:01;8.15;;;6.22;;
9860;SDS011;4969;52.304;4.968;2022-08-03T15:20:28;7.25;;;5.13;;
9860;SDS011;4969;52.304;4.968;2022-08-03T15:22:54;19.00;;;15.60;;
9860;SDS011;4969;52.304;4.968;2022-08-03T15:25:21;10.10;;;6.63;;